createdAt,value
2017-04-21T00:00:45.013Z,10.83
2017-04-21T00:01:46.377Z,10.68
2017-04-21T00:02:45.606Z,10.75
2017-04-21T00:03:45.268Z,9.32
2017-04-21T00:04:44.495Z,10.58
2017-04-21T00:05:42.975Z,10.23
2017-04-21T00:06:42.971Z,8.63
2017-04-21T00:07:42.202Z,10.25
2017-04-21T00:08:41.447Z,10.72
2017-04-21T00:09:40.718Z,10.53
2017-04-21T00:10:39.957Z,10.72
2017-04-21T00:11:39.948Z,8.72
2017-04-21T00:12:39.228Z,11.10
2017-04-21T00:13:39.235Z,16.73
2017-04-21T00:14:38.505Z,9.82
2017-04-21T00:15:37.791Z,7.58
2017-04-21T00:16:37.028Z,9.33
2017-04-21T00:17:36.284Z,9.35
2017-04-21T00:18:35.543Z,9.98
2017-04-21T00:19:34.808Z,9.92
2017-04-21T00:20:34.054Z,10.20
2017-04-21T00:21:33.304Z,8.75
2017-04-21T00:22:32.599Z,8.27
2017-04-21T00:23:31.936Z,9.53
2017-04-21T00:24:31.196Z,9.68
2017-04-21T00:25:30.463Z,10.13
2017-04-21T00:26:29.736Z,9.20
2017-04-21T00:27:28.991Z,9.35
2017-04-21T00:28:28.232Z,9.45
2017-04-21T00:29:27.511Z,9.92
2017-04-21T00:30:26.759Z,8.75
2017-04-21T00:31:26.069Z,11.28
2017-04-21T00:32:25.299Z,11.12
2017-04-21T00:33:24.528Z,9.15
2017-04-21T00:34:23.795Z,11.20
2017-04-21T00:35:23.800Z,9.75
2017-04-21T00:36:23.047Z,10.17
2017-04-21T00:37:22.289Z,9.92
2017-04-21T00:38:21.539Z,10.57
2017-04-21T00:39:21.128Z,9.65
2017-04-21T00:40:20.369Z,9.13
2017-04-21T00:41:19.616Z,9.70
2017-04-21T00:42:18.855Z,11.00
2017-04-21T00:43:18.091Z,9.12
2017-04-21T00:44:17.355Z,11.65
2017-04-21T00:45:16.619Z,10.38
2017-04-21T00:46:15.867Z,11.53
2017-04-21T00:47:15.122Z,11.42
2017-04-21T00:48:14.361Z,10.93
2017-04-21T00:49:13.604Z,13.40
2017-04-21T00:50:12.893Z,11.85
2017-04-21T00:51:12.181Z,12.55
2017-04-21T00:52:11.440Z,11.20
2017-04-21T00:53:10.691Z,12.27
2017-04-21T00:54:09.939Z,12.62
2017-04-21T00:55:09.204Z,11.60
2017-04-21T00:56:08.443Z,10.32
2017-04-21T00:57:07.704Z,10.98
2017-04-21T00:58:06.952Z,10.95
2017-04-21T00:59:06.224Z,11.93
2017-04-21T01:00:05.512Z,10.75
2017-04-21T01:01:04.759Z,10.53
2017-04-21T01:02:04.015Z,11.13
2017-04-21T01:03:03.263Z,11.38
2017-04-21T01:04:02.575Z,10.45
2017-04-21T01:05:01.992Z,10.33
2017-04-21T01:06:01.241Z,11.97
2017-04-21T01:07:00.480Z,10.83
2017-04-21T01:07:59.727Z,10.48
2017-04-21T01:08:58.973Z,12.28
2017-04-21T01:09:58.237Z,10.55
2017-04-21T01:10:57.503Z,10.77
2017-04-21T01:11:57.559Z,11.85
2017-04-21T01:12:56.810Z,12.33
2017-04-21T01:13:56.054Z,14.42
2017-04-21T01:14:55.367Z,11.23
2017-04-21T01:15:54.755Z,9.80
2017-04-21T01:16:54.026Z,13.17
2017-04-21T01:17:53.260Z,14.37
2017-04-21T01:18:52.506Z,10.92
2017-04-21T01:19:51.759Z,11.95
2017-04-21T01:20:51.032Z,12.65
2017-04-21T01:21:50.293Z,13.67
2017-04-21T01:22:49.530Z,12.20
2017-04-21T01:23:48.780Z,13.98
2017-04-21T01:24:48.036Z,15.65
2017-04-21T01:25:47.375Z,14.57
2017-04-21T01:26:46.639Z,12.53
2017-04-21T01:27:45.875Z,13.78
2017-04-21T01:28:45.121Z,11.97
2017-04-21T01:29:45.107Z,12.83
2017-04-21T01:30:44.396Z,11.92
2017-04-21T01:31:43.660Z,13.50
2017-04-21T01:32:42.908Z,13.28
2017-04-21T01:33:42.163Z,11.92
2017-04-21T01:34:41.531Z,13.15
2017-04-21T01:35:40.867Z,16.28
2017-04-21T01:36:40.175Z,16.95
2017-04-21T01:37:39.506Z,12.72
2017-04-21T01:38:38.751Z,14.23
2017-04-21T01:39:37.991Z,16.18
2017-04-21T01:40:37.275Z,16.50
2017-04-21T01:41:36.548Z,14.22
2017-04-21T01:42:36.132Z,15.37
2017-04-21T01:43:35.391Z,14.23
2017-04-21T01:44:34.631Z,14.27
2017-04-21T01:45:33.907Z,16.02
2017-04-21T01:46:33.204Z,15.65
2017-04-21T01:47:32.464Z,16.13
2017-04-21T01:48:31.835Z,15.32
2017-04-21T01:49:31.101Z,16.07
2017-04-21T01:50:30.505Z,14.92
2017-04-21T01:51:29.783Z,13.15
2017-04-21T01:52:29.047Z,15.43
2017-04-21T01:53:28.490Z,13.62
2017-04-21T01:54:27.895Z,15.17
2017-04-21T01:55:28.236Z,17.40
2017-04-21T01:56:27.540Z,14.80
2017-04-21T01:57:26.792Z,14.70
2017-04-21T01:58:26.039Z,14.05
2017-04-21T01:59:25.289Z,15.67
2017-04-21T02:00:24.578Z,14.75
2017-04-21T02:01:23.883Z,14.43
2017-04-21T02:02:23.123Z,16.43
2017-04-21T02:03:22.401Z,16.35
2017-04-21T02:04:21.648Z,13.57
2017-04-21T02:05:20.925Z,15.67
2017-04-21T02:06:20.223Z,15.02
2017-04-21T02:07:19.472Z,15.10
2017-04-21T02:08:18.759Z,15.80
2017-04-21T02:09:18.023Z,14.58
2017-04-21T02:10:17.280Z,16.43
2017-04-21T02:11:16.544Z,14.90
2017-04-21T02:12:15.811Z,13.82
2017-04-21T02:13:15.056Z,14.67
2017-04-21T02:14:14.313Z,15.43
2017-04-21T02:15:13.563Z,15.03
2017-04-21T02:16:12.875Z,15.52
2017-04-21T02:17:11.347Z,15.02
2017-04-21T02:18:10.599Z,14.68
2017-04-21T02:19:09.839Z,12.95
2017-04-21T02:20:09.079Z,15.20
2017-04-21T02:21:08.367Z,15.78
2017-04-21T02:22:07.632Z,15.28
2017-04-21T02:23:06.896Z,17.28
2017-04-21T02:24:06.143Z,14.57
2017-04-21T02:25:05.428Z,15.52
2017-04-21T02:26:04.704Z,15.58
2017-04-21T02:27:03.951Z,13.62
2017-04-21T02:28:03.232Z,16.03
2017-04-21T02:29:02.502Z,14.67
2017-04-21T02:30:01.763Z,16.35
2017-04-21T02:31:01.440Z,14.35
2017-04-21T02:32:00.690Z,14.92
2017-04-21T02:32:59.935Z,16.02
2017-04-21T02:33:59.208Z,17.17
2017-04-21T02:34:58.450Z,16.70
2017-04-21T02:35:57.703Z,15.97
2017-04-21T02:36:56.967Z,16.20
2017-04-21T02:37:56.251Z,16.33
2017-04-21T02:38:54.732Z,17.52
2017-04-21T02:39:53.989Z,17.60
2017-04-21T02:40:53.256Z,16.45
2017-04-21T02:41:53.285Z,13.78
2017-04-21T02:42:52.549Z,16.82
2017-04-21T02:43:51.805Z,14.85
2017-04-21T02:44:51.059Z,18.00
2017-04-21T02:45:50.336Z,16.58
2017-04-21T02:46:49.611Z,15.20
2017-04-21T02:47:48.865Z,16.78
2017-04-21T02:48:48.115Z,17.07
2017-04-21T02:49:47.375Z,17.58
2017-04-21T02:50:46.628Z,14.83
2017-04-21T02:51:45.171Z,14.70
2017-04-21T02:52:44.424Z,15.82
2017-04-21T02:53:43.750Z,16.63
2017-04-21T02:54:43.007Z,14.85
2017-04-21T02:55:43.006Z,16.87
2017-04-21T02:56:42.275Z,13.18
2017-04-21T02:57:41.528Z,14.78
2017-04-21T02:58:40.779Z,16.07
2017-04-21T02:59:40.032Z,14.75
2017-04-21T03:00:39.298Z,16.67
2017-04-21T03:01:38.922Z,14.53
2017-04-21T03:02:38.175Z,16.82
2017-04-21T03:03:37.431Z,15.87
2017-04-21T03:04:36.695Z,13.92
2017-04-21T03:05:35.943Z,15.43
2017-04-21T03:06:35.539Z,16.38
2017-04-21T03:07:34.782Z,15.55
2017-04-21T03:08:34.014Z,13.47
2017-04-21T03:09:33.469Z,17.05
2017-04-21T03:10:31.928Z,15.53
2017-04-21T03:11:31.170Z,14.63
2017-04-21T03:12:30.424Z,14.48
2017-04-21T03:13:29.731Z,14.22
2017-04-21T03:14:28.945Z,14.93
2017-04-21T03:15:28.169Z,14.27
2017-04-21T03:16:27.401Z,14.67
2017-04-21T03:17:26.652Z,13.38
2017-04-21T03:18:25.947Z,15.95
2017-04-21T03:19:25.172Z,13.30
2017-04-21T03:20:24.392Z,15.43
2017-04-21T03:21:23.673Z,15.07
2017-04-21T03:22:22.919Z,15.20
2017-04-21T03:23:22.145Z,13.92
2017-04-21T03:24:21.377Z,15.15
2017-04-21T03:25:20.637Z,14.58
2017-04-21T03:26:19.863Z,14.73
2017-04-21T03:27:19.133Z,15.57
2017-04-21T03:28:18.388Z,17.02
2017-04-21T03:29:17.604Z,16.93
2017-04-21T03:30:16.912Z,13.78
2017-04-21T03:31:16.146Z,14.45
2017-04-21T03:32:15.783Z,13.97
2017-04-21T03:33:14.999Z,13.85
2017-04-21T03:34:14.221Z,14.70
2017-04-21T03:35:13.448Z,14.32
2017-04-21T03:36:12.663Z,14.83
2017-04-21T03:37:11.884Z,12.57
2017-04-21T03:38:11.136Z,13.60
2017-04-21T03:39:10.406Z,14.95
2017-04-21T03:40:09.656Z,12.80
2017-04-21T03:41:09.173Z,15.43
2017-04-21T03:42:08.404Z,13.93
2017-04-21T03:43:07.663Z,16.32
2017-04-21T03:44:06.893Z,14.42
2017-04-21T03:45:06.152Z,13.67
2017-04-21T03:46:05.388Z,15.92
2017-04-21T03:47:04.612Z,14.03
2017-04-21T03:48:03.858Z,14.15
2017-04-21T03:49:03.099Z,16.43
2017-04-21T03:50:02.316Z,13.78
2017-04-21T03:51:01.535Z,15.77
2017-04-21T03:52:00.797Z,14.28
2017-04-21T03:53:00.036Z,13.68
2017-04-21T03:53:59.272Z,15.10
2017-04-21T03:54:58.504Z,15.80
2017-04-21T03:55:57.737Z,17.32
2017-04-21T03:56:56.957Z,14.58
2017-04-21T03:57:56.228Z,16.05
2017-04-21T03:58:55.592Z,15.50
2017-04-21T03:59:55.257Z,14.40
2017-04-21T04:00:54.660Z,15.53
2017-04-21T04:01:53.900Z,14.73
2017-04-21T04:02:53.878Z,17.80
2017-04-21T04:03:53.191Z,15.88
2017-04-21T04:04:52.796Z,14.73
2017-04-21T04:05:54.795Z,15.50
2017-04-21T04:06:57.879Z,14.35
2017-04-21T04:07:57.409Z,15.40
2017-04-21T04:08:56.793Z,16.40
2017-04-21T04:09:56.097Z,15.95
2017-04-21T04:10:54.573Z,16.58
2017-04-21T04:11:53.821Z,19.17
2017-04-21T04:12:57.311Z,16.10
2017-04-21T04:13:56.545Z,16.62
2017-04-21T04:14:55.796Z,16.37
2017-04-21T04:15:55.063Z,16.62
2017-04-21T04:16:57.320Z,15.62
2017-04-21T04:17:56.860Z,17.90
2017-04-21T04:18:56.092Z,16.95
2017-04-21T04:19:55.333Z,15.03
2017-04-21T04:20:54.587Z,15.85
2017-04-21T04:21:53.828Z,17.90
2017-04-21T04:22:53.938Z,14.77
2017-04-21T04:23:53.197Z,17.37
2017-04-21T04:24:52.480Z,17.07
2017-04-21T04:25:51.817Z,17.52
2017-04-21T04:26:51.249Z,14.77
2017-04-21T04:27:50.768Z,14.88
2017-04-21T04:28:50.184Z,14.95
2017-04-21T04:29:49.644Z,15.97
2017-04-21T04:30:49.225Z,15.15
2017-04-21T04:31:49.441Z,15.60
2017-04-21T04:32:49.030Z,17.13
2017-04-21T04:33:48.644Z,14.22
2017-04-21T04:34:47.972Z,13.10
2017-04-21T04:35:48.621Z,14.97
2017-04-21T04:36:48.108Z,16.65
2017-04-21T04:37:47.833Z,14.80
2017-04-21T04:38:46.655Z,17.30
2017-04-21T04:39:46.084Z,17.47
2017-04-21T04:40:45.568Z,13.77
2017-04-21T04:41:45.023Z,16.57
2017-04-21T04:42:44.397Z,16.42
2017-04-21T04:43:43.813Z,16.90
2017-04-21T04:44:42.696Z,15.00
2017-04-21T04:45:42.276Z,13.78
2017-04-21T04:46:41.712Z,15.55
2017-04-21T04:47:41.305Z,15.52
2017-04-21T04:48:40.781Z,15.40
2017-04-21T04:49:40.221Z,14.43
2017-04-21T04:50:39.664Z,15.87
2017-04-21T04:51:38.494Z,15.22
2017-04-21T04:52:37.954Z,12.53
2017-04-21T04:53:37.736Z,14.40
2017-04-21T04:54:37.309Z,15.03
2017-04-21T04:55:36.753Z,14.62
2017-04-21T04:56:35.655Z,13.18
2017-04-21T04:57:35.105Z,12.80
2017-04-21T04:58:34.580Z,12.62
2017-04-21T04:59:34.520Z,14.72
2017-04-21T05:00:34.114Z,14.38
2017-04-21T05:01:33.706Z,13.03
2017-04-21T05:02:32.968Z,12.82
2017-04-21T05:03:32.549Z,12.32
2017-04-21T05:04:32.140Z,14.55
2017-04-21T05:05:32.188Z,15.45
2017-04-21T05:06:31.503Z,13.62
2017-04-21T05:07:30.744Z,11.27
2017-04-21T05:08:29.959Z,14.67
2017-04-21T05:09:29.178Z,13.50
2017-04-21T05:10:28.436Z,12.90
2017-04-21T05:11:27.668Z,14.97
2017-04-21T05:12:27.256Z,14.23
2017-04-21T05:13:26.493Z,12.68
2017-04-21T05:14:25.719Z,14.28
2017-04-21T05:15:25.380Z,14.57
2017-04-21T05:16:24.610Z,13.35
2017-04-21T05:17:23.860Z,13.08
2017-04-21T05:18:23.261Z,12.28
2017-04-21T05:19:22.500Z,14.52
2017-04-21T05:20:21.747Z,14.75
2017-04-21T05:21:20.986Z,12.93
2017-04-21T05:22:20.213Z,13.77
2017-04-21T05:23:19.436Z,13.75
2017-04-21T05:24:18.648Z,13.12
2017-04-21T05:25:17.913Z,15.83
2017-04-21T05:26:18.168Z,16.13
2017-04-21T05:27:17.424Z,15.68
2017-04-21T05:28:16.656Z,16.07
2017-04-21T05:29:15.878Z,14.00
2017-04-21T05:30:15.185Z,13.73
2017-04-21T05:31:14.408Z,13.27
2017-04-21T05:32:13.642Z,15.63
2017-04-21T05:33:12.868Z,13.72
2017-04-21T05:34:12.829Z,14.50
2017-04-21T05:35:12.048Z,14.03
2017-04-21T05:36:11.433Z,14.48
2017-04-21T05:37:10.652Z,13.73
2017-04-21T05:38:09.911Z,12.42
2017-04-21T05:39:09.133Z,14.02
2017-04-21T05:40:08.256Z,13.18
2017-04-21T05:41:07.545Z,12.48
2017-04-21T05:42:06.772Z,13.50
2017-04-21T05:43:05.996Z,12.48
2017-04-21T05:44:05.240Z,14.62
2017-04-21T05:45:04.562Z,14.03
2017-04-21T05:46:04.212Z,12.67
2017-04-21T05:47:04.197Z,12.13
2017-04-21T05:48:03.423Z,12.75
2017-04-21T05:49:02.644Z,13.82
2017-04-21T05:50:01.981Z,15.38
2017-04-21T05:51:01.223Z,12.30
2017-04-21T05:52:00.616Z,14.60
2017-04-21T05:52:59.931Z,14.18
2017-04-21T05:53:59.158Z,14.05
2017-04-21T05:54:58.382Z,14.03
2017-04-21T05:55:57.605Z,11.80
2017-04-21T05:56:56.903Z,11.80
2017-04-21T05:57:56.168Z,14.48
2017-04-21T05:58:55.541Z,11.97
2017-04-21T05:59:54.766Z,13.07
2017-04-21T06:00:54.024Z,12.57
2017-04-21T06:01:53.282Z,12.57
2017-04-21T06:02:52.529Z,12.25
2017-04-21T06:03:51.765Z,12.65
2017-04-21T06:04:50.984Z,12.03
2017-04-21T06:05:50.240Z,13.23
2017-04-21T06:06:49.508Z,12.60
2017-04-21T06:07:48.741Z,11.92
2017-04-21T06:08:47.964Z,12.60
2017-04-21T06:09:47.189Z,13.57
2017-04-21T06:10:46.421Z,13.60
2017-04-21T06:11:45.663Z,13.32
2017-04-21T06:12:45.004Z,12.25
2017-04-21T06:13:44.238Z,13.30
2017-04-21T06:14:43.464Z,14.13
2017-04-21T06:15:42.752Z,13.23
2017-04-21T06:16:42.293Z,14.28
2017-04-21T06:17:41.507Z,14.58
2017-04-21T06:18:40.745Z,14.42
2017-04-21T06:19:39.966Z,12.57
2017-04-21T06:20:39.201Z,12.73
2017-04-21T06:21:38.496Z,13.05
2017-04-21T06:22:37.756Z,13.45
2017-04-21T06:23:36.988Z,12.05
2017-04-21T06:24:36.221Z,12.75
2017-04-21T06:25:35.445Z,14.07
2017-04-21T06:26:34.665Z,15.40
2017-04-21T06:27:33.928Z,13.57
2017-04-21T06:28:33.153Z,11.15
2017-04-21T06:29:32.388Z,12.23
2017-04-21T06:30:31.939Z,11.42
2017-04-21T06:31:31.171Z,11.68
2017-04-21T06:32:30.428Z,14.20
2017-04-21T06:33:29.684Z,14.12
2017-04-21T06:34:28.924Z,13.47
2017-04-21T06:35:28.198Z,13.43
2017-04-21T06:36:27.428Z,12.87
2017-04-21T06:37:26.696Z,12.78
2017-04-21T06:38:25.981Z,12.80
2017-04-21T06:39:26.097Z,12.05
2017-04-21T06:40:25.659Z,11.08
2017-04-21T06:41:25.976Z,10.53
2017-04-21T06:42:25.249Z,12.77
2017-04-21T06:43:24.515Z,12.57
2017-04-21T06:44:23.768Z,12.18
2017-04-21T06:45:23.051Z,12.15
2017-04-21T06:46:23.509Z,13.02
2017-04-21T06:47:23.588Z,12.57
2017-04-21T06:48:23.024Z,12.00
2017-04-21T06:49:22.547Z,11.67
2017-04-21T06:50:21.796Z,12.67
2017-04-21T06:51:24.676Z,13.18
2017-04-21T06:52:26.729Z,11.33
2017-04-21T06:53:26.407Z,10.57
2017-04-21T06:54:25.635Z,10.37
2017-04-21T06:55:24.892Z,10.97
2017-04-21T06:56:24.151Z,10.35
2017-04-21T06:57:23.679Z,12.12
2017-04-21T06:58:22.922Z,11.92
2017-04-21T06:59:22.222Z,13.07
2017-04-21T07:00:21.444Z,11.57
2017-04-21T07:01:20.696Z,11.15
2017-04-21T07:02:20.040Z,12.45
2017-04-21T07:03:19.301Z,11.03
2017-04-21T07:04:18.573Z,11.47
2017-04-21T07:05:17.799Z,10.97
2017-04-21T07:06:17.041Z,11.62
2017-04-21T07:07:16.870Z,11.38
2017-04-21T07:08:16.824Z,10.03
2017-04-21T07:09:18.675Z,11.75
2017-04-21T07:10:21.624Z,9.98
2017-04-21T07:11:24.064Z,10.77
2017-04-21T07:12:24.708Z,11.78
2017-04-21T07:13:24.808Z,10.95
2017-04-21T07:14:24.977Z,9.92
2017-04-21T07:15:24.208Z,12.12
2017-04-21T07:16:27.056Z,12.07
2017-04-21T07:17:26.819Z,10.82
2017-04-21T07:18:26.076Z,11.75
2017-04-21T07:19:25.344Z,12.20
2017-04-21T07:20:24.641Z,11.57
2017-04-21T07:21:24.133Z,12.17
2017-04-21T07:22:24.299Z,10.10
2017-04-21T07:23:23.927Z,10.40
2017-04-21T07:24:23.904Z,12.53
2017-04-21T07:25:23.664Z,10.72
2017-04-21T07:26:23.357Z,13.28
2017-04-21T07:27:23.215Z,11.57
2017-04-21T07:28:23.249Z,11.32
2017-04-21T07:29:23.146Z,11.40
2017-04-21T07:30:22.409Z,13.07
2017-04-21T07:31:21.874Z,12.63
2017-04-21T07:32:22.028Z,12.25
2017-04-21T07:33:21.761Z,13.13
2017-04-21T07:34:21.529Z,13.55
2017-04-21T07:35:20.789Z,13.57
2017-04-21T07:36:23.539Z,14.15
2017-04-21T07:37:25.313Z,12.97
2017-04-21T07:38:24.727Z,14.30
2017-04-21T07:39:26.720Z,13.83
2017-04-21T07:40:26.457Z,14.38
2017-04-21T07:41:26.651Z,15.35
2017-04-21T07:42:26.104Z,13.10
2017-04-21T07:43:26.229Z,14.70
2017-04-21T07:44:25.623Z,13.17
2017-04-21T07:45:25.816Z,14.18
2017-04-21T07:46:25.077Z,14.73
2017-04-21T07:47:24.309Z,15.08
2017-04-21T07:48:23.916Z,15.60
2017-04-21T07:49:23.137Z,12.30
2017-04-21T07:50:22.361Z,14.05
2017-04-21T07:51:22.375Z,15.40
2017-04-21T07:52:21.637Z,15.30
2017-04-21T07:53:20.844Z,17.87
2017-04-21T07:54:20.122Z,14.82
2017-04-21T07:55:19.375Z,16.35
2017-04-21T07:56:18.692Z,14.60
2017-04-21T07:57:18.059Z,16.25
2017-04-21T07:58:17.338Z,16.67
2017-04-21T07:59:16.594Z,16.53
2017-04-21T08:00:15.840Z,17.22
2017-04-21T08:01:15.713Z,16.33
2017-04-21T08:02:14.957Z,17.22
2017-04-21T08:03:14.724Z,16.13
2017-04-21T08:04:13.973Z,17.83
2017-04-21T08:05:13.858Z,16.90
2017-04-21T08:06:13.424Z,17.12
2017-04-21T08:07:13.174Z,17.87
2017-04-21T08:08:12.619Z,16.00
2017-04-21T08:09:12.237Z,17.58
2017-04-21T08:10:11.782Z,16.90
2017-04-21T08:11:11.255Z,17.25
2017-04-21T08:12:10.831Z,17.65
2017-04-21T08:13:10.852Z,17.60
2017-04-21T08:14:10.435Z,16.97
2017-04-21T08:15:10.552Z,16.83
2017-04-21T08:16:10.057Z,17.25
2017-04-21T08:17:09.433Z,18.50
2017-04-21T08:18:10.151Z,18.58
2017-04-21T08:19:09.988Z,19.57
2017-04-21T08:20:09.712Z,16.35
2017-04-21T08:21:09.487Z,18.55
2017-04-21T08:22:08.704Z,18.90
2017-04-21T08:23:08.528Z,19.77
2017-04-21T08:24:08.440Z,20.75
2017-04-21T08:25:07.680Z,19.97
2017-04-21T08:26:06.251Z,20.48
2017-04-21T08:27:05.604Z,20.83
2017-04-21T08:28:04.852Z,18.80
2017-04-21T08:29:10.587Z,19.82
2017-04-21T08:30:10.567Z,21.43
2017-04-21T08:31:10.276Z,20.57
2017-04-21T08:32:11.620Z,22.72
2017-04-21T08:33:10.852Z,19.15
2017-04-21T08:34:10.425Z,22.37
2017-04-21T08:35:09.645Z,23.98
2017-04-21T08:36:09.349Z,21.77
2017-04-21T08:37:09.050Z,24.78
2017-04-21T08:38:08.797Z,23.73
2017-04-21T08:39:08.484Z,22.23
2017-04-21T08:40:08.259Z,21.73
2017-04-21T08:41:07.656Z,24.63
2017-04-21T08:42:07.376Z,25.23
2017-04-21T08:43:06.794Z,23.03
2017-04-21T08:44:06.049Z,25.00
2017-04-21T08:45:05.335Z,23.67
2017-04-21T08:46:05.023Z,23.53
2017-04-21T08:47:08.004Z,23.87
2017-04-21T08:48:07.352Z,26.22
2017-04-21T08:49:06.610Z,27.60
2017-04-21T08:50:05.875Z,28.38
2017-04-21T08:51:05.112Z,24.93
2017-04-21T08:52:04.342Z,25.95
2017-04-21T08:53:03.595Z,25.88
2017-04-21T08:54:02.074Z,25.63
2017-04-21T08:55:02.082Z,26.67
2017-04-21T08:56:02.048Z,27.68
2017-04-21T08:57:01.303Z,28.02
2017-04-21T08:58:00.584Z,28.52
2017-04-21T08:58:59.859Z,27.67
2017-04-21T08:59:59.113Z,25.50
2017-04-21T09:01:00.106Z,27.33
2017-04-21T09:02:00.908Z,27.92
2017-04-21T09:03:00.764Z,26.65
2017-04-21T09:04:00.747Z,28.20
2017-04-21T09:05:00.729Z,29.92
2017-04-21T09:06:00.654Z,30.87
2017-04-21T09:07:00.620Z,33.93
2017-04-21T09:08:00.501Z,33.20
2017-04-21T09:08:59.749Z,29.93
2017-04-21T09:09:59.788Z,32.53
2017-04-21T09:10:59.033Z,31.28
2017-04-21T09:11:59.027Z,30.83
2017-04-21T09:12:59.097Z,34.10
2017-04-21T09:13:58.977Z,31.75
2017-04-21T09:14:59.051Z,34.27
2017-04-21T09:15:58.293Z,34.88
2017-04-21T09:16:58.410Z,30.73
2017-04-21T09:17:58.226Z,32.38
2017-04-21T09:18:58.107Z,29.53
2017-04-21T09:19:58.085Z,34.93
2017-04-21T09:20:57.365Z,32.92
2017-04-21T09:21:56.592Z,33.27
2017-04-21T09:22:56.555Z,33.77
2017-04-21T09:23:55.817Z,36.12
2017-04-21T09:24:55.447Z,34.02
2017-04-21T09:25:55.345Z,33.67
2017-04-21T09:26:55.577Z,35.92
2017-04-21T09:27:55.551Z,34.05
2017-04-21T09:28:54.802Z,33.25
2017-04-21T09:29:54.047Z,32.15
2017-04-21T09:30:56.447Z,35.40
2017-04-21T09:31:55.993Z,34.32
2017-04-21T09:33:29.605Z,35.13
2017-04-21T09:33:54.657Z,36.33
2017-04-21T09:35:36.084Z,32.27
2017-04-21T09:35:53.537Z,35.33
2017-04-21T09:36:52.782Z,32.82
2017-04-21T09:37:52.089Z,31.78
2017-04-21T09:38:51.378Z,34.08
2017-04-21T09:39:49.931Z,33.25
2017-04-21T09:40:49.189Z,29.93
2017-04-21T09:41:48.802Z,36.35
2017-04-21T09:42:48.927Z,30.82
2017-04-21T09:43:48.271Z,34.02
2017-04-21T09:44:48.225Z,33.43
2017-04-21T09:45:51.278Z,32.83
2017-04-21T09:46:54.929Z,33.83
2017-04-21T09:47:56.066Z,33.23
2017-04-21T09:48:55.339Z,34.03
2017-04-21T09:49:59.826Z,29.62
2017-04-21T09:51:01.709Z,31.25
2017-04-21T09:53:04.726Z,31.90
2017-04-21T09:54:07.407Z,27.00
2017-04-21T09:56:44.822Z,32.97
2017-04-21T09:57:19.276Z,32.00
2017-04-21T09:57:22.708Z,32.47
2017-04-21T09:59:18.407Z,34.23
2017-04-21T09:59:24.833Z,30.88
2017-04-21T10:00:59.014Z,31.08
2017-04-21T10:01:22.513Z,32.73
2017-04-21T10:04:08.502Z,31.60
2017-04-21T10:04:10.495Z,34.52
2017-04-21T10:04:27.928Z,29.78
2017-04-21T10:07:03.888Z,35.13
2017-04-21T10:07:06.866Z,34.28
2017-04-21T10:07:38.408Z,32.68
2017-04-21T10:07:47.314Z,31.52
2017-04-21T10:08:22.162Z,33.87
2017-04-21T10:08:59.797Z,36.07
2017-04-21T10:09:59.604Z,37.07
2017-04-21T10:10:59.952Z,36.92
2017-04-21T10:11:59.772Z,33.67
2017-04-21T10:12:59.769Z,33.43
2017-04-21T10:13:59.241Z,37.37
2017-04-21T10:14:59.067Z,32.02
2017-04-21T10:15:59.055Z,34.02
2017-04-21T10:16:59.112Z,34.22
2017-04-21T10:17:58.717Z,33.97
2017-04-21T10:18:58.784Z,32.88
2017-04-21T10:19:58.828Z,29.93
2017-04-21T10:20:58.090Z,34.68
2017-04-21T10:21:58.176Z,35.58
2017-04-21T10:22:57.734Z,33.32
2017-04-21T10:23:57.006Z,34.82
2017-04-21T10:24:57.008Z,35.52
2017-04-21T10:25:57.688Z,34.95
2017-04-21T10:26:57.511Z,32.58
2017-04-21T10:27:56.755Z,34.38
2017-04-21T10:28:55.988Z,34.43
2017-04-21T10:29:55.977Z,36.78
2017-04-21T10:30:58.256Z,33.47
2017-04-21T10:31:57.516Z,31.78
2017-04-21T10:32:56.756Z,34.50
2017-04-21T10:33:55.988Z,31.58
2017-04-21T10:34:55.203Z,33.10
2017-04-21T10:35:54.443Z,33.13
2017-04-21T10:36:54.349Z,35.32
2017-04-21T10:38:00.208Z,33.17
2017-04-21T10:38:59.447Z,33.65
2017-04-21T10:39:58.672Z,33.80
2017-04-21T10:40:57.936Z,34.98
2017-04-21T10:41:57.183Z,32.98
2017-04-21T10:42:56.400Z,34.77
2017-04-21T10:43:55.628Z,33.72
2017-04-21T10:44:55.200Z,30.85
2017-04-21T10:45:56.006Z,33.77
2017-04-21T10:46:55.312Z,32.35
2017-04-21T10:47:54.632Z,32.63
2017-04-21T10:48:53.855Z,37.00
2017-04-21T10:49:53.191Z,32.53
2017-04-21T10:50:53.125Z,32.18
2017-04-21T10:51:53.336Z,28.90
2017-04-21T10:52:56.019Z,27.30
2017-04-21T10:53:56.005Z,28.12
2017-04-21T10:55:00.600Z,25.13
2017-04-21T10:56:02.241Z,25.57
2017-04-21T10:57:07.419Z,25.85
2017-04-21T10:58:12.245Z,25.25
2017-04-21T10:59:14.153Z,29.20
2017-04-21T11:00:17.708Z,29.27
2017-04-21T11:01:19.700Z,27.67
2017-04-21T11:02:23.846Z,25.55
2017-04-21T11:03:26.032Z,27.42
2017-04-21T11:04:30.263Z,27.12
2017-04-21T11:05:31.820Z,28.67
2017-04-21T11:06:31.064Z,26.23
2017-04-21T11:07:30.327Z,27.73
2017-04-21T11:08:29.575Z,27.55
2017-04-21T11:09:28.841Z,26.27
2017-04-21T11:10:28.067Z,29.43
2017-04-21T11:11:27.307Z,26.77
2017-04-21T11:12:26.559Z,23.92
2017-04-21T11:13:25.828Z,26.07
2017-04-21T11:14:25.053Z,23.75
2017-04-21T11:15:24.281Z,23.53
2017-04-21T11:16:24.804Z,25.15
2017-04-21T11:17:24.540Z,23.50
2017-04-21T11:18:24.536Z,23.28
2017-04-21T11:19:23.769Z,23.12
2017-04-21T11:20:23.003Z,22.70
2017-04-21T11:21:22.252Z,22.85
2017-04-21T11:22:21.495Z,23.18
2017-04-21T11:23:20.724Z,23.20
2017-04-21T11:24:19.980Z,22.42
2017-04-21T11:25:19.217Z,25.83
2017-04-21T11:26:19.912Z,25.03
2017-04-21T11:27:19.155Z,24.62
2017-04-21T11:28:18.384Z,27.25
2017-04-21T11:29:17.620Z,25.30
2017-04-21T11:30:16.843Z,25.73
2017-04-21T11:31:16.622Z,24.88
2017-04-21T11:32:19.348Z,26.00
2017-04-21T11:33:20.003Z,24.48
2017-04-21T11:34:20.508Z,23.82
2017-04-21T11:35:20.495Z,26.42
2017-04-21T11:36:24.668Z,25.92
2017-04-21T11:37:24.276Z,25.75
2017-04-21T11:38:23.607Z,24.67
2017-04-21T11:39:23.480Z,23.63
2017-04-21T11:40:22.719Z,26.83
2017-04-21T11:41:21.948Z,25.60
2017-04-21T11:42:21.175Z,25.38
2017-04-21T11:43:20.424Z,26.23
2017-04-21T11:44:19.657Z,26.50
2017-04-21T11:45:19.643Z,26.80
2017-04-21T11:46:20.192Z,26.97
2017-04-21T11:47:23.432Z,26.07
2017-04-21T11:48:25.113Z,27.62
2017-04-21T11:49:26.420Z,26.22
2017-04-21T11:50:25.655Z,26.42
2017-04-21T11:51:24.876Z,27.58
2017-04-21T11:52:24.112Z,26.70
2017-04-21T11:53:23.389Z,28.62
2017-04-21T11:54:22.789Z,25.45
2017-04-21T11:55:22.054Z,24.70
2017-04-21T11:56:21.770Z,28.62
2017-04-21T11:57:25.157Z,24.65
2017-04-21T11:58:25.133Z,27.83
2017-04-21T11:59:26.804Z,27.20
2017-04-21T12:00:26.053Z,28.22
2017-04-21T12:01:28.831Z,26.90
2017-04-21T12:02:28.593Z,26.72
2017-04-21T12:03:29.464Z,26.57
2017-04-21T12:04:28.700Z,26.07
2017-04-21T12:05:27.925Z,26.15
2017-04-21T12:06:27.151Z,25.10
2017-04-21T12:07:27.184Z,24.35
2017-04-21T12:08:26.485Z,23.48
2017-04-21T12:09:25.737Z,24.83
2017-04-21T12:10:25.705Z,24.13
2017-04-21T12:11:29.651Z,23.55
2017-04-21T12:12:28.884Z,24.65
2017-04-21T12:13:28.760Z,24.05
2017-04-21T12:14:27.993Z,24.35
2017-04-21T12:15:27.203Z,23.60
2017-04-21T12:16:26.428Z,23.30
2017-04-21T12:17:25.656Z,24.53
2017-04-21T12:18:24.912Z,24.62
2017-04-21T12:19:24.137Z,22.87
2017-04-21T12:20:23.375Z,22.83
2017-04-21T12:21:22.603Z,24.77
2017-04-21T12:22:21.825Z,23.20
2017-04-21T12:23:21.097Z,20.45
2017-04-21T12:24:20.332Z,21.58
2017-04-21T12:25:19.572Z,23.30
2017-04-21T12:26:18.812Z,22.40
2017-04-21T12:27:18.037Z,21.85
2017-04-21T12:28:17.323Z,23.37
2017-04-21T12:29:16.549Z,24.30
2017-04-21T12:30:15.783Z,25.23
2017-04-21T12:31:15.028Z,22.07
2017-04-21T12:32:14.260Z,23.23
2017-04-21T12:33:13.944Z,23.20
2017-04-21T12:34:13.360Z,23.32
2017-04-21T12:35:12.683Z,24.03
2017-04-21T12:36:11.925Z,22.75
2017-04-21T12:37:11.144Z,23.37
2017-04-21T12:38:10.386Z,19.95
2017-04-21T12:39:09.641Z,22.68
2017-04-21T12:40:08.865Z,23.45
2017-04-21T12:41:08.099Z,22.23
2017-04-21T12:42:08.065Z,21.95
2017-04-21T12:43:07.287Z,24.30
2017-04-21T12:44:06.540Z,19.67
2017-04-21T12:45:05.844Z,20.47
2017-04-21T12:46:05.072Z,20.12
2017-04-21T12:47:04.300Z,22.90
2017-04-21T12:48:03.544Z,20.37
2017-04-21T12:49:03.568Z,21.58